Terminal Aerodrome Forecast
Issued by NWS

Home | Current Version | Previous Version | Text Only | Print | Product List | Glossary On
Versions: 1 2 3 4 5 6 7 8 9 10 11 12 13 14 15 16 17 18 19 20 21 22 23 24 25 26 27 28
968
FTAK31 PANC 260524
TAFAHO
TAF
PAHO 260524Z 2606/2706 15008G16KT P6SM -SHRA SCT025 BKN040
      TEMPO 2606/2610 5SM -SHRA BKN025
     FM261000 15007KT P6SM VCSH BKN050
     FM262200 20007KT P6SM SCT050 BKN120=

USA.gov is the U.S. government's official web portal to all federal, state and local government web resources and services.